sensor_id;sensor_type;location;lat;lon;timestamp;pressure;altitude;pressure_sealevel;temperature;humidity
48216;BME280;34005;48.844;10.098;2024-01-30T00:00:51;97967.94;;;5.98;62.54
48216;BME280;34005;48.844;10.098;2024-01-30T00:03:20;97966.19;;;5.98;62.49
48216;BME280;34005;48.844;10.098;2024-01-30T00:05:48;97968.78;;;5.98;62.08
48216;BME280;34005;48.844;10.098;2024-01-30T00:08:15;97970.53;;;5.98;62.27
48216;BME280;34005;48.844;10.098;2024-01-30T00:10:43;97963.03;;;5.95;61.91
48216;BME280;34005;48.844;10.098;2024-01-30T00:13:11;97967.47;;;5.93;62.04
48216;BME280;34005;48.844;10.098;2024-01-30T00:15:40;97959.91;;;5.90;62.17
48216;BME280;34005;48.844;10.098;2024-01-30T00:18:07;97971.34;;;5.87;62.38
48216;BME280;34005;48.844;10.098;2024-01-30T00:20:36;97970.53;;;5.87;63.05
48216;BME280;34005;48.844;10.098;2024-01-30T00:23:04;97965.44;;;5.85;62.46
48216;BME280;34005;48.844;10.098;2024-01-30T00:25:31;97977.47;;;5.86;62.69
48216;BME280;34005;48.844;10.098;2024-01-30T00:27:59;97968.16;;;5.84;62.41
48216;BME280;34005;48.844;10.098;2024-01-30T00:30:27;97970.75;;;5.84;63.01
48216;BME280;34005;48.844;10.098;2024-01-30T00:32:55;97974.19;;;5.84;62.58
48216;BME280;34005;48.844;10.098;2024-01-30T00:35:22;97967.22;;;5.85;62.69
48216;BME280;34005;48.844;10.098;2024-01-30T00:37:51;97969.72;;;5.86;62.50
48216;BME280;34005;48.844;10.098;2024-01-30T00:40:19;97973.13;;;5.87;62.41
48216;BME280;34005;48.844;10.098;2024-01-30T00:42:47;97967.94;;;5.87;62.26
48216;BME280;34005;48.844;10.098;2024-01-30T00:45:14;97968.63;;;5.89;61.96
48216;BME280;34005;48.844;10.098;2024-01-30T00:47:42;97973.72;;;5.90;62.30
48216;BME280;34005;48.844;10.098;2024-01-30T00:50:11;97985.81;;;5.90;61.92
48216;BME280;34005;48.844;10.098;2024-01-30T00:52:38;97979.81;;;5.89;62.17
48216;BME280;34005;48.844;10.098;2024-01-30T00:55:09;97977.34;;;5.88;61.98
48216;BME280;34005;48.844;10.098;2024-01-30T00:57:36;97982.50;;;5.88;63.52
48216;BME280;34005;48.844;10.098;2024-01-30T01:00:05;97984.88;;;5.91;63.23
48216;BME280;34005;48.844;10.098;2024-01-30T01:02:34;97980.78;;;5.88;62.45
48216;BME280;34005;48.844;10.098;2024-01-30T01:05:02;97981.09;;;5.84;61.90
48216;BME280;34005;48.844;10.098;2024-01-30T01:07:31;97979.56;;;5.81;62.96
48216;BME280;34005;48.844;10.098;2024-01-30T01:09:58;97984.88;;;5.80;62.74
48216;BME280;34005;48.844;10.098;2024-01-30T01:12:27;97982.63;;;5.75;62.10
48216;BME280;34005;48.844;10.098;2024-01-30T01:14:55;97985.56;;;5.70;62.29
48216;BME280;34005;48.844;10.098;2024-01-30T01:17:22;97987.44;;;5.68;62.54
48216;BME280;34005;48.844;10.098;2024-01-30T01:19:50;97991.09;;;5.66;62.52
48216;BME280;34005;48.844;10.098;2024-01-30T01:22:17;97986.06;;;5.64;62.25
48216;BME280;34005;48.844;10.098;2024-01-30T01:24:45;97983.69;;;5.61;62.43
48216;BME280;34005;48.844;10.098;2024-01-30T01:27:12;97985.69;;;5.57;62.12
48216;BME280;34005;48.844;10.098;2024-01-30T01:29:41;97985.81;;;5.56;64.66
48216;BME280;34005;48.844;10.098;2024-01-30T01:32:09;97975.47;;;5.56;62.99
48216;BME280;34005;48.844;10.098;2024-01-30T01:34:37;97984.28;;;5.53;62.82
48216;BME280;34005;48.844;10.098;2024-01-30T01:37:05;97982.88;;;5.49;62.74
48216;BME280;34005;48.844;10.098;2024-01-30T01:39:33;97979.56;;;5.47;62.50
48216;BME280;34005;48.844;10.098;2024-01-30T01:42:01;97974.50;;;5.46;62.89
48216;BME280;34005;48.844;10.098;2024-01-30T01:44:29;97977.09;;;5.46;62.62
48216;BME280;34005;48.844;10.098;2024-01-30T01:46:57;97982.25;;;5.46;62.60
48216;BME280;34005;48.844;10.098;2024-01-30T01:49:27;97978.97;;;5.44;62.93
48216;BME280;34005;48.844;10.098;2024-01-30T01:51:56;97979.91;;;5.43;62.73
48216;BME280;34005;48.844;10.098;2024-01-30T01:54:26;97981.66;;;5.42;63.00
48216;BME280;34005;48.844;10.098;2024-01-30T01:56:55;97985.09;;;5.43;63.56
48216;BME280;34005;48.844;10.098;2024-01-30T01:59:23;97980.63;;;5.45;63.73
48216;BME280;34005;48.844;10.098;2024-01-30T02:01:53;97981.53;;;5.44;63.14
48216;BME280;34005;48.844;10.098;2024-01-30T02:04:22;97979.06;;;5.42;63.13
48216;BME280;34005;48.844;10.098;2024-01-30T02:06:50;97975.56;;;5.43;64.49
48216;BME280;34005;48.844;10.098;2024-01-30T02:09:17;97979.66;;;5.46;63.59
48216;BME280;34005;48.844;10.098;2024-01-30T02:11:45;97973.78;;;5.44;63.09
48216;BME280;34005;48.844;10.098;2024-01-30T02:14:12;97977.31;;;5.43;63.82
48216;BME280;34005;48.844;10.098;2024-01-30T02:16:40;97975.44;;;5.45;63.56
48216;BME280;34005;48.844;10.098;2024-01-30T02:19:07;97971.19;;;5.44;64.29
48216;BME280;34005;48.844;10.098;2024-01-30T02:21:37;97978.03;;;5.45;65.05
48216;BME280;34005;48.844;10.098;2024-01-30T02:24:05;97979.66;;;5.46;65.36
48216;BME280;34005;48.844;10.098;2024-01-30T02:26:33;97975.81;;;5.51;65.72
48216;BME280;34005;48.844;10.098;2024-01-30T02:28:59;97979.69;;;5.57;65.83
48216;BME280;34005;48.844;10.098;2024-01-30T02:31:27;97978.63;;;5.60;65.13
48216;BME280;34005;48.844;10.098;2024-01-30T02:33:54;97978.84;;;5.56;65.18
48216;BME280;34005;48.844;10.098;2024-01-30T02:36:22;97983.44;;;5.53;65.95
48216;BME280;34005;48.844;10.098;2024-01-30T02:38:51;97987.44;;;5.46;64.44
48216;BME280;34005;48.844;10.098;2024-01-30T02:41:18;97984.38;;;5.41;64.15
48216;BME280;34005;48.844;10.098;2024-01-30T02:43:46;97977.78;;;5.36;64.01
48216;BME280;34005;48.844;10.098;2024-01-30T02:46:13;97978.00;;;5.33;63.87
48216;BME280;34005;48.844;10.098;2024-01-30T02:48:41;97973.31;;;5.27;63.68
48216;BME280;34005;48.844;10.098;2024-01-30T02:51:08;97979.75;;;5.22;63.83
48216;BME280;34005;48.844;10.098;2024-01-30T02:53:36;97975.88;;;5.16;63.61
48216;BME280;34005;48.844;10.098;2024-01-30T02:56:05;97973.59;;;5.11;63.60
48216;BME280;34005;48.844;10.098;2024-01-30T02:58:36;97972.41;;;5.04;63.24
48216;BME280;34005;48.844;10.098;2024-01-30T03:01:03;97978.88;;;4.99;64.07
48216;BME280;34005;48.844;10.098;2024-01-30T03:03:31;97980.03;;;4.94;64.03
48216;BME280;34005;48.844;10.098;2024-01-30T03:06:00;97983.06;;;4.88;64.23
48216;BME280;34005;48.844;10.098;2024-01-30T03:08:28;97974.22;;;4.80;63.89
48216;BME280;34005;48.844;10.098;2024-01-30T03:10:55;97971.97;;;4.75;64.12
48216;BME280;34005;48.844;10.098;2024-01-30T03:13:24;97977.56;;;4.69;64.33
48216;BME280;34005;48.844;10.098;2024-01-30T03:15:52;97971.19;;;4.62;64.20
48216;BME280;34005;48.844;10.098;2024-01-30T03:18:20;97976.56;;;4.59;64.90
48216;BME280;34005;48.844;10.098;2024-01-30T03:20:47;97974.00;;;4.59;64.66
48216;BME280;34005;48.844;10.098;2024-01-30T03:23:15;97973.28;;;4.57;64.46
48216;BME280;34005;48.844;10.098;2024-01-30T03:25:42;97973.50;;;4.53;64.52
48216;BME280;34005;48.844;10.098;2024-01-30T03:28:10;97971.25;;;4.49;64.38
48216;BME280;34005;48.844;10.098;2024-01-30T03:30:39;97969.81;;;4.45;65.12
48216;BME280;34005;48.844;10.098;2024-01-30T03:33:07;97974.75;;;4.48;65.51
48216;BME280;34005;48.844;10.098;2024-01-30T03:35:34;97977.25;;;4.49;65.21
48216;BME280;34005;48.844;10.098;2024-01-30T03:38:02;97968.56;;;4.50;64.89
48216;BME280;34005;48.844;10.098;2024-01-30T03:40:29;97980.63;;;4.50;64.95
48216;BME280;34005;48.844;10.098;2024-01-30T03:42:57;97982.41;;;4.49;64.76
48216;BME280;34005;48.844;10.098;2024-01-30T03:45:25;97980.78;;;4.48;64.76
48216;BME280;34005;48.844;10.098;2024-01-30T03:47:54;97977.47;;;4.46;65.08
48216;BME280;34005;48.844;10.098;2024-01-30T03:50:22;97977.34;;;4.48;64.82
48216;BME280;34005;48.844;10.098;2024-01-30T03:52:49;97973.94;;;4.47;65.38
48216;BME280;34005;48.844;10.098;2024-01-30T03:55:17;97972.41;;;4.45;64.72
48216;BME280;34005;48.844;10.098;2024-01-30T03:57:45;97969.34;;;4.40;64.61
48216;BME280;34005;48.844;10.098;2024-01-30T04:00:14;97974.81;;;4.35;64.93
48216;BME280;34005;48.844;10.098;2024-01-30T04:02:42;97975.75;;;4.34;65.51
48216;BME280;34005;48.844;10.098;2024-01-30T04:05:11;97976.69;;;4.33;65.21
48216;BME280;34005;48.844;10.098;2024-01-30T04:07:39;97985.38;;;4.32;65.43
48216;BME280;34005;48.844;10.098;2024-01-30T04:10:07;97982.78;;;4.32;66.34
48216;BME280;34005;48.844;10.098;2024-01-30T04:12:36;97982.69;;;4.33;65.88
48216;BME280;34005;48.844;10.098;2024-01-30T04:15:04;97990.09;;;4.38;67.62
48216;BME280;34005;48.844;10.098;2024-01-30T04:17:32;97987.28;;;4.41;66.20
48216;BME280;34005;48.844;10.098;2024-01-30T04:20:00;97998.56;;;4.40;65.93
48216;BME280;34005;48.844;10.098;2024-01-30T04:22:29;97997.13;;;4.36;65.93
48216;BME280;34005;48.844;10.098;2024-01-30T04:24:57;97992.88;;;4.35;66.06
48216;BME280;34005;48.844;10.098;2024-01-30T04:27:24;97997.47;;;4.31;65.73
48216;BME280;34005;48.844;10.098;2024-01-30T04:29:52;97995.91;;;4.29;65.32
48216;BME280;34005;48.844;10.098;2024-01-30T04:32:20;97995.00;;;4.17;65.43
48216;BME280;34005;48.844;10.098;2024-01-30T04:34:47;97998.97;;;4.10;65.75
48216;BME280;34005;48.844;10.098;2024-01-30T04:37:15;97998.56;;;4.03;65.57
48216;BME280;34005;48.844;10.098;2024-01-30T04:39:44;97990.63;;;3.94;66.45
48216;BME280;34005;48.844;10.098;2024-01-30T04:42:11;97995.19;;;3.90;65.93
48216;BME280;34005;48.844;10.098;2024-01-30T04:44:39;97992.09;;;3.85;66.34
48216;BME280;34005;48.844;10.098;2024-01-30T04:47:07;97991.06;;;3.75;66.32
48216;BME280;34005;48.844;10.098;2024-01-30T04:49:35;98000.16;;;3.67;66.69
48216;BME280;34005;48.844;10.098;2024-01-30T04:52:03;97993.97;;;3.57;66.78
48216;BME280;34005;48.844;10.098;2024-01-30T04:54:31;98000.47;;;3.50;67.32
48216;BME280;34005;48.844;10.098;2024-01-30T04:57:00;98001.47;;;3.47;67.33
48216;BME280;34005;48.844;10.098;2024-01-30T04:59:27;97996.63;;;3.43;67.32
48216;BME280;34005;48.844;10.098;2024-01-30T05:01:55;98004.50;;;3.41;67.45
48216;BME280;34005;48.844;10.098;2024-01-30T05:04:22;98001.19;;;3.39;67.51
48216;BME280;34005;48.844;10.098;2024-01-30T05:06:50;98000.56;;;3.36;67.46
48216;BME280;34005;48.844;10.098;2024-01-30T05:09:18;97999.81;;;3.34;67.60
48216;BME280;34005;48.844;10.098;2024-01-30T05:11:46;98000.78;;;3.33;68.04
48216;BME280;34005;48.844;10.098;2024-01-30T05:14:15;98011.09;;;3.33;68.16
48216;BME280;34005;48.844;10.098;2024-01-30T05:16:42;98008.50;;;3.33;67.87
48216;BME280;34005;48.844;10.098;2024-01-30T05:19:13;98008.50;;;3.33;67.91
48216;BME280;34005;48.844;10.098;2024-01-30T05:35:26;98013.72;;;3.18;68.27
48216;BME280;34005;48.844;10.098;2024-01-30T05:37:53;98012.28;;;3.14;67.64
48216;BME280;34005;48.844;10.098;2024-01-30T05:40:21;98010.00;;;3.09;67.77
48216;BME280;34005;48.844;10.098;2024-01-30T05:42:49;98016.38;;;3.04;68.20
48216;BME280;34005;48.844;10.098;2024-01-30T05:45:16;98006.28;;;3.01;68.32
48216;BME280;34005;48.844;10.098;2024-01-30T05:47:44;98011.22;;;3.04;67.98
48216;BME280;34005;48.844;10.098;2024-01-30T05:50:12;98014.66;;;3.04;68.19
48216;BME280;34005;48.844;10.098;2024-01-30T05:52:41;98014.53;;;3.06;68.43
48216;BME280;34005;48.844;10.098;2024-01-30T05:55:08;98008.53;;;3.05;67.88
48216;BME280;34005;48.844;10.098;2024-01-30T05:57:38;98011.03;;;3.07;68.44
48216;BME280;34005;48.844;10.098;2024-01-30T06:00:07;98016.91;;;3.09;68.51
48216;BME280;34005;48.844;10.098;2024-01-30T06:02:35;98020.94;;;3.13;68.30
48216;BME280;34005;48.844;10.098;2024-01-30T06:05:03;98021.69;;;3.15;67.90
48216;BME280;34005;48.844;10.098;2024-01-30T06:07:31;98013.00;;;3.16;67.89
48216;BME280;34005;48.844;10.098;2024-01-30T06:10:05;98012.09;;;3.17;68.10
48216;BME280;34005;48.844;10.098;2024-01-30T06:12:33;98004.97;;;3.21;68.20
48216;BME280;34005;48.844;10.098;2024-01-30T06:15:00;98003.03;;;3.24;67.62
48216;BME280;34005;48.844;10.098;2024-01-30T06:17:28;98004.56;;;3.27;67.46
48216;BME280;34005;48.844;10.098;2024-01-30T06:19:56;98008.69;;;3.29;67.46
48216;BME280;34005;48.844;10.098;2024-01-30T06:22:24;98011.28;;;3.29;67.66
48216;BME280;34005;48.844;10.098;2024-01-30T06:24:51;98016.44;;;3.29;67.40
48216;BME280;34005;48.844;10.098;2024-01-30T06:27:20;98018.19;;;3.29;67.49
48216;BME280;34005;48.844;10.098;2024-01-30T06:29:48;98015.41;;;3.32;67.86
48216;BME280;34005;48.844;10.098;2024-01-30T06:32:16;98014.56;;;3.32;67.53
48216;BME280;34005;48.844;10.098;2024-01-30T06:34:44;98019.72;;;3.32;67.67
48216;BME280;34005;48.844;10.098;2024-01-30T06:37:11;98009.50;;;3.30;67.54
48216;BME280;34005;48.844;10.098;2024-01-30T06:39:39;98018.09;;;3.30;67.31
48216;BME280;34005;48.844;10.098;2024-01-30T06:42:07;98014.56;;;3.32;67.70
48216;BME280;34005;48.844;10.098;2024-01-30T06:44:36;98009.94;;;3.37;67.78
48216;BME280;34005;48.844;10.098;2024-01-30T06:47:04;98019.13;;;3.41;67.55
48216;BME280;34005;48.844;10.098;2024-01-30T06:49:31;98021.38;;;3.45;67.62
48216;BME280;34005;48.844;10.098;2024-01-30T06:51:59;98016.13;;;3.47;67.92
48216;BME280;34005;48.844;10.098;2024-01-30T06:54:27;98015.94;;;3.50;67.62
48216;BME280;34005;48.844;10.098;2024-01-30T06:56:54;98016.78;;;3.50;67.16
48216;BME280;34005;48.844;10.098;2024-01-30T06:59:22;98016.03;;;3.48;67.41
48216;BME280;34005;48.844;10.098;2024-01-30T07:01:51;98016.88;;;3.49;67.45
48216;BME280;34005;48.844;10.098;2024-01-30T07:04:19;98020.97;;;3.51;67.39
48216;BME280;34005;48.844;10.098;2024-01-30T07:06:46;98025.09;;;3.54;67.34
48216;BME280;34005;48.844;10.098;2024-01-30T07:09:14;98020.66;;;3.56;67.31
48216;BME280;34005;48.844;10.098;2024-01-30T07:11:42;98024.69;;;3.60;67.43
48216;BME280;34005;48.844;10.098;2024-01-30T07:14:09;98029.38;;;3.68;67.86
48216;BME280;34005;48.844;10.098;2024-01-30T07:16:37;98023.25;;;3.82;68.65
48216;BME280;34005;48.844;10.098;2024-01-30T07:19:06;98027.78;;;3.91;68.04
48216;BME280;34005;48.844;10.098;2024-01-30T07:21:35;98026.88;;;3.92;67.47
48216;BME280;34005;48.844;10.098;2024-01-30T07:24:03;98032.75;;;3.94;67.13
48216;BME280;34005;48.844;10.098;2024-01-30T07:26:31;98036.06;;;3.96;66.94
48216;BME280;34005;48.844;10.098;2024-01-30T07:28:58;98036.97;;;3.95;66.52
48216;BME280;34005;48.844;10.098;2024-01-30T07:31:26;98036.78;;;3.98;66.76
48216;BME280;34005;48.844;10.098;2024-01-30T07:33:59;98038.19;;;4.02;66.55
48216;BME280;34005;48.844;10.098;2024-01-30T07:36:28;98041.22;;;4.09;66.32
48216;BME280;34005;48.844;10.098;2024-01-30T07:38:56;98047.94;;;4.11;66.33
48216;BME280;34005;48.844;10.098;2024-01-30T07:41:23;98043.59;;;4.12;65.93
48216;BME280;34005;48.844;10.098;2024-01-30T07:43:51;98043.47;;;4.13;66.04
48216;BME280;34005;48.844;10.098;2024-01-30T07:46:20;98045.84;;;4.17;65.93
48216;BME280;34005;48.844;10.098;2024-01-30T07:48:47;98052.34;;;4.22;65.43
48216;BME280;34005;48.844;10.098;2024-01-30T07:51:18;98049.44;;;4.27;66.32
48216;BME280;34005;48.844;10.098;2024-01-30T07:53:47;98051.47;;;4.34;66.63
48216;BME280;34005;48.844;10.098;2024-01-30T07:56:15;98052.59;;;4.43;66.19
48216;BME280;34005;48.844;10.098;2024-01-30T07:58:43;98055.81;;;4.47;65.42
48216;BME280;34005;48.844;10.098;2024-01-30T08:01:10;98054.75;;;4.49;65.74
48216;BME280;34005;48.844;10.098;2024-01-30T08:03:38;98050.31;;;4.51;65.17
48216;BME280;34005;48.844;10.098;2024-01-30T08:06:08;98047.50;;;4.54;65.36
48216;BME280;34005;48.844;10.098;2024-01-30T08:08:36;98048.94;;;4.59;65.44
48216;BME280;34005;48.844;10.098;2024-01-30T08:11:06;98051.91;;;4.65;64.93
48216;BME280;34005;48.844;10.098;2024-01-30T08:13:34;98052.19;;;4.73;64.96
48216;BME280;34005;48.844;10.098;2024-01-30T08:16:01;98046.69;;;4.78;64.90
48216;BME280;34005;48.844;10.098;2024-01-30T08:18:29;98055.78;;;4.84;64.78
48216;BME280;34005;48.844;10.098;2024-01-30T08:20:57;98054.41;;;4.91;64.61
48216;BME280;34005;48.844;10.098;2024-01-30T08:23:24;98041.75;;;4.99;64.22
48216;BME280;34005;48.844;10.098;2024-01-30T08:25:52;98049.56;;;5.10;64.14
48216;BME280;34005;48.844;10.098;2024-01-30T08:28:21;98041.00;;;5.21;63.92
48216;BME280;34005;48.844;10.098;2024-01-30T08:30:48;98044.44;;;5.33;63.97
48216;BME280;34005;48.844;10.098;2024-01-30T08:33:16;98051.41;;;5.44;63.71
48216;BME280;34005;48.844;10.098;2024-01-30T08:35:44;98047.22;;;5.54;63.41
48216;BME280;34005;48.844;10.098;2024-01-30T08:38:11;98039.47;;;5.65;63.24
48216;BME280;34005;48.844;10.098;2024-01-30T08:40:39;98046.31;;;5.77;63.13
48216;BME280;34005;48.844;10.098;2024-01-30T08:43:06;98045.50;;;5.88;62.66
48216;BME280;34005;48.844;10.098;2024-01-30T08:45:37;98042.00;;;6.01;62.30
48216;BME280;34005;48.844;10.098;2024-01-30T08:48:05;98044.72;;;6.10;62.27
48216;BME280;34005;48.844;10.098;2024-01-30T08:50:34;98037.16;;;6.18;62.98
48216;BME280;34005;48.844;10.098;2024-01-30T08:53:02;98038.09;;;6.29;61.88
48216;BME280;34005;48.844;10.098;2024-01-30T08:55:29;98039.28;;;6.36;61.75
48216;BME280;34005;48.844;10.098;2024-01-30T08:57:57;98037.03;;;6.43;61.36
48216;BME280;34005;48.844;10.098;2024-01-30T09:00:25;98038.44;;;6.47;61.04
48216;BME280;34005;48.844;10.098;2024-01-30T09:02:54;98039.72;;;6.52;60.42
48216;BME280;34005;48.844;10.098;2024-01-30T09:05:22;98035.97;;;6.56;60.56
48216;BME280;34005;48.844;10.098;2024-01-30T09:07:50;98038.88;;;6.63;60.31
48216;BME280;34005;48.844;10.098;2024-01-30T09:10:17;98043.44;;;6.71;60.50
48216;BME280;34005;48.844;10.098;2024-01-30T09:12:47;98052.28;;;6.79;60.39
48216;BME280;34005;48.844;10.098;2024-01-30T09:15:15;98049.09;;;6.87;60.12
48216;BME280;34005;48.844;10.098;2024-01-30T09:17:43;98054.59;;;6.94;59.78
48216;BME280;34005;48.844;10.098;2024-01-30T09:20:12;98053.84;;;7.03;59.54
48216;BME280;34005;48.844;10.098;2024-01-30T09:22:39;98048.50;;;7.16;59.60
48216;BME280;34005;48.844;10.098;2024-01-30T09:25:07;98052.56;;;7.30;59.23
48216;BME280;34005;48.844;10.098;2024-01-30T09:27:35;98048.72;;;7.45;58.94
48216;BME280;34005;48.844;10.098;2024-01-30T09:30:03;98052.50;;;7.62;58.97
48216;BME280;34005;48.844;10.098;2024-01-30T09:32:31;98051.94;;;7.79;58.47
48216;BME280;34005;48.844;10.098;2024-01-30T09:34:58;98053.25;;;7.95;58.00
48216;BME280;34005;48.844;10.098;2024-01-30T09:37:28;98051.25;;;8.08;57.99
48216;BME280;34005;48.844;10.098;2024-01-30T09:39:55;98054.06;;;8.26;58.60
48216;BME280;34005;48.844;10.098;2024-01-30T09:42:28;98051.56;;;8.45;57.78
48216;BME280;34005;48.844;10.098;2024-01-30T09:45:00;98061.75;;;8.68;57.40
48216;BME280;34005;48.844;10.098;2024-01-30T09:47:31;98054.25;;;8.94;56.97
48216;BME280;34005;48.844;10.098;2024-01-30T09:49:59;98049.88;;;9.24;56.58
48216;BME280;34005;48.844;10.098;2024-01-30T09:52:30;98060.00;;;9.56;55.17
48216;BME280;34005;48.844;10.098;2024-01-30T09:54:59;98053.09;;;9.84;55.12
48216;BME280;34005;48.844;10.098;2024-01-30T09:57:27;98053.81;;;10.14;54.02
48216;BME280;34005;48.844;10.098;2024-01-30T09:59:54;98050.28;;;10.43;53.50
48216;BME280;34005;48.844;10.098;2024-01-30T10:02:22;98047.00;;;10.68;52.50
48216;BME280;34005;48.844;10.098;2024-01-30T10:04:51;98055.38;;;10.90;52.32
48216;BME280;34005;48.844;10.098;2024-01-30T10:07:19;98056.88;;;11.10;51.53
48216;BME280;34005;48.844;10.098;2024-01-30T10:09:48;98051.19;;;11.33;52.28
48216;BME280;34005;48.844;10.098;2024-01-30T10:12:16;98049.91;;;11.55;50.63
48216;BME280;34005;48.844;10.098;2024-01-30T10:14:44;98050.31;;;11.68;49.60
48216;BME280;34005;48.844;10.098;2024-01-30T10:17:12;98042.75;;;11.83;48.74
48216;BME280;34005;48.844;10.098;2024-01-30T10:19:53;98040.63;;;12.05;48.71
48216;BME280;34005;48.844;10.098;2024-01-30T10:22:21;98046.09;;;12.28;49.84
48216;BME280;34005;48.844;10.098;2024-01-30T10:24:51;98043.91;;;12.49;47.56
48216;BME280;34005;48.844;10.098;2024-01-30T10:27:24;98037.59;;;12.68;46.84
48216;BME280;34005;48.844;10.098;2024-01-30T10:29:52;98037.63;;;12.85;47.31
48216;BME280;34005;48.844;10.098;2024-01-30T10:32:20;98035.19;;;12.99;46.39
48216;BME280;34005;48.844;10.098;2024-01-30T10:34:47;98035.69;;;13.11;46.08
48216;BME280;34005;48.844;10.098;2024-01-30T10:37:15;98042.25;;;13.24;45.35
48216;BME280;34005;48.844;10.098;2024-01-30T10:39:45;98034.44;;;13.32;45.12
48216;BME280;34005;48.844;10.098;2024-01-30T10:42:16;98032.13;;;13.45;44.91
48216;BME280;34005;48.844;10.098;2024-01-30T10:44:53;98036.03;;;13.66;44.43
48216;BME280;34005;48.844;10.098;2024-01-30T10:47:26;98032.41;;;13.91;43.90
48216;BME280;34005;48.844;10.098;2024-01-30T10:49:55;98030.19;;;14.19;45.01
48216;BME280;34005;48.844;10.098;2024-01-30T10:52:24;98026.47;;;14.45;43.81
48216;BME280;34005;48.844;10.098;2024-01-30T10:54:54;98022.91;;;14.69;42.79
48216;BME280;34005;48.844;10.098;2024-01-30T10:57:24;98025.41;;;14.94;42.24
48216;BME280;34005;48.844;10.098;2024-01-30T10:59:53;98029.22;;;15.14;41.67
48216;BME280;34005;48.844;10.098;2024-01-30T11:02:23;98023.19;;;15.29;43.22
48216;BME280;34005;48.844;10.098;2024-01-30T11:04:56;98022.19;;;15.30;42.00
48216;BME280;34005;48.844;10.098;2024-01-30T11:07:26;98019.22;;;15.33;41.78
48216;BME280;34005;48.844;10.098;2024-01-30T11:09:59;98018.38;;;15.32;41.33
48216;BME280;34005;48.844;10.098;2024-01-30T11:12:30;98017.84;;;15.37;43.50
48216;BME280;34005;48.844;10.098;2024-01-30T11:15:06;98020.78;;;15.42;41.07
48216;BME280;34005;48.844;10.098;2024-01-30T11:17:42;98020.09;;;15.48;38.78
48216;BME280;34005;48.844;10.098;2024-01-30T11:20:11;98014.94;;;15.55;39.00
48216;BME280;34005;48.844;10.098;2024-01-30T11:22:42;98017.03;;;15.59;38.66
48216;BME280;34005;48.844;10.098;2024-01-30T11:25:14;98018.00;;;15.58;38.18
48216;BME280;34005;48.844;10.098;2024-01-30T11:27:44;98017.66;;;15.61;40.06
48216;BME280;34005;48.844;10.098;2024-01-30T11:30:21;98020.38;;;15.68;40.64
48216;BME280;34005;48.844;10.098;2024-01-30T11:32:58;98006.81;;;15.79;37.07
48216;BME280;34005;48.844;10.098;2024-01-30T11:35:28;98011.72;;;15.97;37.52
48216;BME280;34005;48.844;10.098;2024-01-30T11:37:57;98001.84;;;16.14;36.51
48216;BME280;34005;48.844;10.098;2024-01-30T11:40:26;98006.88;;;16.31;36.96
48216;BME280;34005;48.844;10.098;2024-01-30T11:42:56;98008.44;;;16.40;36.82
48216;BME280;34005;48.844;10.098;2024-01-30T11:45:24;98006.25;;;16.43;36.05
48216;BME280;34005;48.844;10.098;2024-01-30T11:47:51;97998.09;;;16.38;36.44
48216;BME280;34005;48.844;10.098;2024-01-30T11:50:20;97998.00;;;16.32;36.50
48216;BME280;34005;48.844;10.098;2024-01-30T11:52:47;97992.38;;;16.20;35.93
48216;BME280;34005;48.844;10.098;2024-01-30T11:55:15;97990.22;;;16.09;36.12
48216;BME280;34005;48.844;10.098;2024-01-30T11:57:43;97988.69;;;15.99;35.26
48216;BME280;34005;48.844;10.098;2024-01-30T12:00:16;97994.03;;;15.91;36.09
48216;BME280;34005;48.844;10.098;2024-01-30T12:02:49;97987.94;;;15.76;34.64
48216;BME280;34005;48.844;10.098;2024-01-30T12:05:19;97988.19;;;15.66;36.04
48216;BME280;34005;48.844;10.098;2024-01-30T12:07:47;97988.44;;;15.56;36.09
48216;BME280;34005;48.844;10.098;2024-01-30T12:10:15;97980.97;;;15.45;36.16
48216;BME280;34005;48.844;10.098;2024-01-30T12:12:46;97987.31;;;15.36;37.11
48216;BME280;34005;48.844;10.098;2024-01-30T12:15:17;97989.66;;;15.31;36.76
48216;BME280;34005;48.844;10.098;2024-01-30T12:17:47;97983.81;;;15.20;37.34
48216;BME280;34005;48.844;10.098;2024-01-30T12:20:18;97985.19;;;15.16;37.26
48216;BME280;34005;48.844;10.098;2024-01-30T12:22:47;97978.81;;;15.11;37.69
48216;BME280;34005;48.844;10.098;2024-01-30T12:25:16;97979.84;;;15.01;36.60
48216;BME280;34005;48.844;10.098;2024-01-30T12:27:46;97983.38;;;14.94;36.75
48216;BME280;34005;48.844;10.098;2024-01-30T12:30:19;97987.69;;;14.87;37.22
48216;BME280;34005;48.844;10.098;2024-01-30T12:32:50;97988.72;;;14.77;38.08
48216;BME280;34005;48.844;10.098;2024-01-30T12:35:19;97984.16;;;14.71;36.82
48216;BME280;34005;48.844;10.098;2024-01-30T12:37:49;97979.63;;;14.65;38.20
48216;BME280;34005;48.844;10.098;2024-01-30T12:40:17;97974.25;;;14.58;37.62
48216;BME280;34005;48.844;10.098;2024-01-30T12:42:46;97976.53;;;14.53;37.98
48216;BME280;34005;48.844;10.098;2024-01-30T12:45:15;97975.44;;;14.48;37.99
48216;BME280;34005;48.844;10.098;2024-01-30T12:47:47;97973.66;;;14.40;37.06
48216;BME280;34005;48.844;10.098;2024-01-30T12:50:15;97970.53;;;14.36;39.61
48216;BME280;34005;48.844;10.098;2024-01-30T12:52:44;97973.38;;;14.35;39.00
48216;BME280;34005;48.844;10.098;2024-01-30T12:55:15;97970.91;;;14.33;39.75
48216;BME280;34005;48.844;10.098;2024-01-30T12:57:43;97971.91;;;14.32;39.55
48216;BME280;34005;48.844;10.098;2024-01-30T13:00:11;97967.78;;;14.30;37.88
48216;BME280;34005;48.844;10.098;2024-01-30T13:02:39;97966.34;;;14.27;37.80
48216;BME280;34005;48.844;10.098;2024-01-30T13:05:10;97967.50;;;14.25;37.84
48216;BME280;34005;48.844;10.098;2024-01-30T13:07:37;97961.59;;;14.22;38.55
48216;BME280;34005;48.844;10.098;2024-01-30T13:10:05;97960.16;;;14.20;37.57
48216;BME280;34005;48.844;10.098;2024-01-30T13:12:33;97956.88;;;14.18;37.72
48216;BME280;34005;48.844;10.098;2024-01-30T13:15:01;97953.59;;;14.16;38.50
48216;BME280;34005;48.844;10.098;2024-01-30T13:17:31;97960.50;;;14.17;40.31